Time;durP1;ratioP1;P1;durP2;ratioP2;P2;SDS_P1;SDS_P2;PMS_P1;PMS_P2;Temp;Humidity;BMP_temperature;BMP_pressure;BME280_temperature;BME280_humidity;BME280_pressure;Samples;Min_cycle;Max_cycle;Signal;HPM_P1;HPM_P2
2023/08/07 00:00:39;;;;;;;6.30;1.70;;;9.20;99.90;;;;;;2065094;28;20288;-85
2023/08/07 00:01:40;;;;;;;2.17;1.63;;;9.20;99.90;;;;;;2041967;28;20255;-85
2023/08/07 00:02:40;;;;;;;3.23;1.97;;;9.10;99.90;;;;;;2049790;28;20592;-84
2023/08/07 00:03:41;;;;;;;2.13;1.60;;;9.10;99.90;;;;;;2049049;28;20252;-85
2023/08/07 00:04:43;;;;;;;3.70;1.83;;;9.10;99.90;;;;;;2057308;28;20290;-85
2023/08/07 00:05:46;;;;;;;2.55;1.83;;;9.20;99.90;;;;;;2048924;28;20222;-85
2023/08/07 00:06:47;;;;;;;3.00;1.95;;;9.20;99.90;;;;;;2041797;28;20262;-85
2023/08/07 00:07:47;;;;;;;2.17;1.70;;;9.20;99.90;;;;;;2040605;28;20224;-85
2023/08/07 00:08:48;;;;;;;3.83;1.90;;;9.30;99.90;;;;;;2049543;28;20246;-85
2023/08/07 00:09:49;;;;;;;3.10;2.13;;;9.30;99.90;;;;;;2041726;28;20335;-85
2023/08/07 00:10:49;;;;;;;2.27;1.57;;;9.30;99.90;;;;;;2048797;28;20235;-85
2023/08/07 00:11:50;;;;;;;2.50;1.90;;;9.30;99.90;;;;;;2057556;28;20234;-84
2023/08/07 00:12:51;;;;;;;5.30;1.87;;;9.20;99.90;;;;;;2057284;28;20714;-85
2023/08/07 00:13:51;;;;;;;3.57;1.93;;;9.20;99.90;;;;;;2056808;28;20233;-84
2023/08/07 00:14:52;;;;;;;2.90;1.93;;;9.20;99.90;;;;;;2056997;28;20231;-84
2023/08/07 00:15:53;;;;;;;3.27;1.80;;;9.20;99.90;;;;;;2057165;28;20289;-85
2023/08/07 00:16:54;;;;;;;2.30;1.70;;;9.20;99.90;;;;;;2065470;28;20249;-85
2023/08/07 00:17:55;;;;;;;3.67;1.90;;;9.20;99.90;;;;;;2048490;28;20234;-85
2023/08/07 00:18:57;;;;;;;3.07;1.70;;;9.30;99.90;;;;;;2048704;28;20310;-85
2023/08/07 00:19:58;;;;;;;5.30;1.77;;;9.30;99.90;;;;;;2057275;28;20241;-84
2023/08/07 00:21:00;;;;;;;2.57;1.60;;;9.30;99.90;;;;;;2056974;28;20607;-85
2023/08/07 00:22:01;;;;;;;2.90;1.90;;;9.30;99.90;;;;;;2056060;28;20302;-85
2023/08/07 00:23:01;;;;;;;2.80;2.00;;;9.30;99.90;;;;;;2049233;28;20179;-85
2023/08/07 00:24:02;;;;;;;4.37;2.27;;;9.40;99.90;;;;;;2048991;28;20196;-84
2023/08/07 00:25:03;;;;;;;3.77;1.50;;;9.40;99.90;;;;;;2065496;28;20186;-84
2023/08/07 00:26:04;;;;;;;2.40;1.80;;;9.40;99.90;;;;;;2056479;28;20179;-84
2023/08/07 00:27:06;;;;;;;2.87;1.70;;;9.30;99.90;;;;;;2048557;28;20444;-85
2023/08/07 00:28:07;;;;;;;2.55;1.80;;;9.30;99.90;;;;;;2056037;28;20168;-84
2023/08/07 00:29:07;;;;;;;3.87;1.87;;;9.30;99.90;;;;;;2048933;28;20550;-84
2023/08/07 00:30:09;;;;;;;2.43;1.63;;;9.30;99.90;;;;;;2048371;28;20274;-85
2023/08/07 00:31:10;;;;;;;2.53;1.90;;;9.30;99.90;;;;;;2050702;28;20186;-83
2023/08/07 00:32:10;;;;;;;2.87;1.60;;;9.30;99.90;;;;;;2048712;29;20180;-84
2023/08/07 00:33:11;;;;;;;3.57;1.53;;;9.30;99.90;;;;;;2048660;29;20180;-84
2023/08/07 00:34:12;;;;;;;2.23;1.73;;;9.20;99.90;;;;;;2056057;28;20202;-84
2023/08/07 00:35:12;;;;;;;4.53;1.90;;;9.20;99.90;;;;;;2040804;29;20665;-84
2023/08/07 00:36:13;;;;;;;3.03;1.73;;;9.10;99.90;;;;;;2048378;28;20199;-84
2023/08/07 00:37:13;;;;;;;2.60;2.07;;;9.10;99.90;;;;;;2048499;28;20187;-84
2023/08/07 00:38:14;;;;;;;2.87;2.00;;;9.00;99.90;;;;;;2064406;28;20593;-84
2023/08/07 00:39:15;;;;;;;3.10;2.07;;;9.00;99.90;;;;;;2048137;28;20200;-84
2023/08/07 00:40:17;;;;;;;3.80;1.87;;;8.90;99.90;;;;;;2040757;28;20212;-84
2023/08/07 00:41:18;;;;;;;2.47;1.75;;;8.90;99.90;;;;;;2056097;28;20182;-84
2023/08/07 00:42:19;;;;;;;4.90;2.07;;;9.00;99.90;;;;;;2056585;28;20190;-84
2023/08/07 00:43:19;;;;;;;5.33;2.27;;;9.00;99.90;;;;;;2048540;28;20187;-84
2023/08/07 00:44:20;;;;;;;2.97;2.10;;;9.00;99.90;;;;;;2056317;28;22136;-84
2023/08/07 00:45:21;;;;;;;2.57;1.60;;;9.00;99.90;;;;;;2056144;28;20263;-85
2023/08/07 00:46:22;;;;;;;3.47;1.80;;;9.00;99.90;;;;;;2056493;28;20314;-84
2023/08/07 00:47:23;;;;;;;3.78;2.38;;;9.00;99.90;;;;;;2048731;28;20419;-84
2023/08/07 00:48:23;;;;;;;3.87;1.90;;;9.00;99.90;;;;;;2033098;29;20291;-84
2023/08/07 00:49:25;;;;;;;3.23;1.97;;;8.90;99.90;;;;;;2040423;29;20259;-84
2023/08/07 00:50:26;;;;;;;3.65;2.15;;;8.90;99.90;;;;;;2049192;28;20227;-84
2023/08/07 00:51:27;;;;;;;4.78;2.67;;;9.00;99.90;;;;;;2057083;28;20289;-84
2023/08/07 00:52:28;;;;;;;5.90;2.17;;;9.00;99.90;;;;;;2056775;28;20235;-83
2023/08/07 00:53:29;;;;;;;2.53;1.60;;;9.10;99.90;;;;;;2055950;28;20226;-85
2023/08/07 00:54:30;;;;;;;2.83;1.97;;;9.00;99.90;;;;;;2040469;29;20232;-83
2023/08/07 00:55:31;;;;;;;4.20;2.00;;;9.10;99.90;;;;;;2040396;29;20227;-84
2023/08/07 00:56:32;;;;;;;2.20;1.80;;;9.10;99.90;;;;;;2048429;28;20466;-83
2023/08/07 00:57:33;;;;;;;3.13;2.22;;;9.00;99.90;;;;;;2048718;28;20619;-84
2023/08/07 00:58:34;;;;;;;4.07;2.00;;;9.10;99.90;;;;;;2040378;28;20236;-84
2023/08/07 00:59:35;;;;;;;4.30;2.08;;;9.10;99.90;;;;;;2047776;28;20249;-84
2023/08/07 01:00:37;;;;;;;2.73;1.93;;;9.10;99.90;;;;;;2056450;28;20364;-84
2023/08/07 01:01:38;;;;;;;4.85;2.50;;;9.10;99.90;;;;;;2055728;28;20236;-84
2023/08/07 01:02:38;;;;;;;1.77;1.60;;;9.10;99.90;;;;;;2055626;28;20321;-84
2023/08/07 01:03:39;;;;;;;3.20;1.83;;;9.20;99.90;;;;;;2055667;28;20309;-84
2023/08/07 01:04:40;;;;;;;4.37;2.10;;;9.20;99.90;;;;;;2056088;28;20325;-84
2023/08/07 01:05:40;;;;;;;4.83;2.30;;;9.20;99.90;;;;;;2056378;28;20646;-84
2023/08/07 01:06:41;;;;;;;4.40;2.00;;;9.30;99.90;;;;;;2040179;28;20228;-84
2023/08/07 01:07:42;;;;;;;3.97;2.00;;;9.20;99.90;;;;;;2047769;28;20234;-85
2023/08/07 01:08:44;;;;;;;3.97;2.00;;;9.30;99.90;;;;;;2062908;28;20873;-85
2023/08/07 01:09:45;;;;;;;3.90;2.00;;;9.30;99.90;;;;;;2047221;28;20318;-84
2023/08/07 01:11:34;;;;;;;2.58;1.88;;;9.20;99.90;;;;;;2039194;28;20224;-84
2023/08/07 01:12:48;;;;;;;2.45;1.92;;;9.20;99.90;;;;;;2051849;28;20353;-83
2023/08/07 01:14:22;;;;;;;2.83;1.70;;;9.20;99.90;;;;;;2042162;28;20227;-83
2023/08/07 01:15:30;;;;;;;2.75;1.98;;;9.20;99.90;;;;;;2046773;28;20233;-83
2023/08/07 01:17:00;;;;;;;2.95;1.90;;;9.10;99.90;;;;;;2050358;28;20306;-83
2023/08/07 01:18:01;;;;;;;3.30;2.25;;;9.10;99.90;;;;;;2064203;28;20289;-83
2023/08/07 01:19:04;;;;;;;2.65;1.65;;;9.10;99.90;;;;;;2053915;28;20264;-83
2023/08/07 01:20:06;;;;;;;2.67;1.98;;;9.10;99.90;;;;;;2040630;28;20208;-83
2023/08/07 01:21:18;;;;;;;2.78;1.65;;;9.10;99.90;;;;;;2041426;28;20765;-83
2023/08/07 01:22:20;;;;;;;2.95;2.10;;;9.10;99.90;;;;;;2055728;28;20185;-84
2023/08/07 01:23:21;;;;;;;2.10;1.67;;;9.00;99.90;;;;;;2047672;28;20873;-84
2023/08/07 01:24:22;;;;;;;4.57;1.97;;;9.00;99.90;;;;;;2038728;29;20240;-83
2023/08/07 01:25:23;;;;;;;2.77;1.90;;;9.00;99.90;;;;;;2040253;29;20744;-84
2023/08/07 01:26:23;;;;;;;2.15;1.63;;;9.00;99.90;;;;;;2056760;28;20250;-84
2023/08/07 01:27:31;;;;;;;4.10;2.30;;;9.20;99.90;;;;;;2055626;28;20241;-84
2023/08/07 01:28:38;;;;;;;3.90;2.30;;;9.20;99.90;;;;;;2048575;28;20226;-84
2023/08/07 01:29:52;;;;;;;3.25;2.05;;;9.10;99.90;;;;;;2048858;28;20234;-84
2023/08/07 01:30:59;;;;;;;2.75;1.83;;;9.10;99.90;;;;;;2057058;28;20253;-83
2023/08/07 01:32:08;;;;;;;4.05;1.80;;;9.10;99.90;;;;;;2057344;28;20802;-83
2023/08/07 01:33:39;;;;;;;2.97;1.83;;;9.10;99.90;;;;;;2062251;28;20244;-83
2023/08/07 01:34:42;;;;;;;3.63;1.90;;;9.00;99.90;;;;;;2050912;28;20229;-83
2023/08/07 01:35:47;;;;;;;2.67;1.73;;;9.00;99.90;;;;;;2047800;28;20234;-84
2023/08/07 01:36:50;;;;;;;3.58;1.83;;;9.00;99.90;;;;;;2050144;28;20230;-84
2023/08/07 01:37:53;;;;;;;3.63;2.25;;;9.00;99.90;;;;;;2056799;28;20299;-83
2023/08/07 01:38:57;;;;;;;3.00;2.00;;;9.00;99.90;;;;;;2048579;28;20308;-83
2023/08/07 01:40:00;;;;;;;2.45;1.67;;;9.00;99.90;;;;;;2049270;28;20234;-84
2023/08/07 01:41:02;;;;;;;3.10;1.95;;;9.00;99.90;;;;;;2049353;28;20216;-85
2023/08/07 01:42:04;;;;;;;2.90;2.00;;;9.00;99.90;;;;;;2049293;28;20179;-84
2023/08/07 01:43:06;;;;;;;3.25;1.83;;;9.00;99.90;;;;;;2041104;29;20224;-84
2023/08/07 01:44:06;;;;;;;4.88;1.90;;;9.00;99.90;;;;;;2032834;29;20788;-84
2023/08/07 01:45:07;;;;;;;4.10;1.80;;;8.90;99.90;;;;;;2049022;28;20182;-83
2023/08/07 01:46:08;;;;;;;4.10;2.07;;;8.90;99.90;;;;;;2048890;28;20180;-83
2023/08/07 01:47:09;;;;;;;4.13;1.90;;;8.90;99.90;;;;;;2048294;28;20176;-84
2023/08/07 01:48:09;;;;;;;3.57;2.00;;;8.90;99.90;;;;;;2052530;28;20183;-83
2023/08/07 01:49:10;;;;;;;4.00;2.00;;;8.90;99.90;;;;;;2058441;28;20175;-84
2023/08/07 01:50:11;;;;;;;3.37;2.10;;;8.90;99.90;;;;;;2066428;28;20169;-83
2023/08/07 01:51:11;;;;;;;2.60;2.00;;;8.80;99.90;;;;;;2063585;28;20189;-84
2023/08/07 01:52:13;;;;;;;3.93;1.80;;;8.70;99.90;;;;;;2057509;28;20185;-83
2023/08/07 01:53:13;;;;;;;2.30;1.80;;;8.70;99.90;;;;;;2050096;28;20189;-84
2023/08/07 01:54:14;;;;;;;2.77;1.67;;;8.70;99.90;;;;;;2049376;28;20203;-83
2023/08/07 01:55:19;;;;;;;2.72;1.80;;;8.80;99.90;;;;;;2049929;28;20612;-84
2023/08/07 01:56:20;;;;;;;3.33;1.83;;;8.60;99.90;;;;;;2043626;29;20202;-84
2023/08/07 01:57:20;;;;;;;2.17;1.57;;;8.60;99.90;;;;;;2033362;29;20764;-84
2023/08/07 01:58:21;;;;;;;3.77;1.93;;;8.60;99.90;;;;;;2053271;28;20252;-84
2023/08/07 01:59:22;;;;;;;3.13;1.93;;;8.50;99.90;;;;;;2056070;28;20295;-84
2023/08/07 02:00:23;;;;;;;2.57;1.70;;;8.50;99.90;;;;;;2056223;28;20262;-83
2023/08/07 02:01:23;;;;;;;3.33;1.67;;;8.50;99.90;;;;;;2055959;28;20223;-83
2023/08/07 02:02:24;;;;;;;2.67;1.80;;;8.50;99.90;;;;;;2054422;28;20774;-84
2023/08/07 02:03:25;;;;;;;2.83;1.83;;;8.40;99.90;;;;;;2044917;29;20244;-84
2023/08/07 02:04:25;;;;;;;2.90;1.73;;;8.40;99.90;;;;;;2049547;28;20273;-84
2023/08/07 02:05:26;;;;;;;1.67;1.43;;;8.40;99.90;;;;;;2050096;28;20261;-84
2023/08/07 02:06:26;;;;;;;3.17;1.93;;;8.40;99.90;;;;;;2042419;28;20231;-83
2023/08/07 02:07:27;;;;;;;3.47;2.27;;;8.50;99.90;;;;;;2042273;28;20247;-83
2023/08/07 02:08:28;;;;;;;3.17;1.80;;;8.40;99.90;;;;;;2057427;28;20293;-83
2023/08/07 02:09:29;;;;;;;3.70;1.90;;;8.40;99.90;;;;;;2049748;28;20620;-84
2023/08/07 02:10:29;;;;;;;3.20;2.20;;;8.40;99.90;;;;;;2042387;28;20237;-83
2023/08/07 02:11:30;;;;;;;2.67;1.70;;;8.40;99.90;;;;;;2041868;28;20235;-83
2023/08/07 02:12:32;;;;;;;2.07;1.60;;;8.40;99.90;;;;;;2042124;28;20235;-84
2023/08/07 02:13:32;;;;;;;3.45;1.77;;;8.40;99.90;;;;;;2058088;28;20320;-84
2023/08/07 02:14:33;;;;;;;2.47;1.80;;;8.40;99.90;;;;;;2057352;28;20240;-83
2023/08/07 02:15:34;;;;;;;2.13;1.80;;;8.40;99.90;;;;;;2048885;28;20258;-84
2023/08/07 02:16:34;;;;;;;3.40;1.70;;;8.40;99.90;;;;;;2066164;28;20240;-83
2023/08/07 02:17:40;;;;;;;2.53;1.80;;;8.30;99.90;;;;;;2065659;28;20270;-84
2023/08/07 02:18:41;;;;;;;5.28;1.55;;;8.40;99.90;;;;;;2050921;28;20238;-84
2023/08/07 02:19:42;;;;;;;3.73;1.80;;;8.30;99.90;;;;;;2057711;28;20243;-84
2023/08/07 02:20:43;;;;;;;3.67;1.90;;;8.30;99.90;;;;;;2049941;28;20626;-83
2023/08/07 02:21:43;;;;;;;5.30;1.80;;;8.30;99.90;;;;;;2050001;28;20223;-83
2023/08/07 02:22:44;;;;;;;2.10;1.57;;;8.30;99.90;;;;;;2041395;29;20266;-84
2023/08/07 02:23:45;;;;;;;3.13;1.80;;;8.40;99.90;;;;;;2040301;29;20301;-83
2023/08/07 02:24:45;;;;;;;4.80;1.83;;;8.30;99.90;;;;;;2049157;28;20261;-84
2023/08/07 02:25:46;;;;;;;2.87;1.57;;;8.30;99.90;;;;;;2057408;28;20241;-83
2023/08/07 02:26:47;;;;;;;4.20;1.80;;;8.30;99.90;;;;;;2056774;28;20265;-84
2023/08/07 02:27:47;;;;;;;3.13;1.73;;;8.30;99.90;;;;;;2056678;28;20293;-83
2023/08/07 02:28:48;;;;;;;3.43;1.70;;;8.30;99.90;;;;;;2056842;28;20348;-84
2023/08/07 02:29:50;;;;;;;4.40;1.60;;;8.20;99.90;;;;;;2058145;28;20269;-83
2023/08/07 02:30:53;;;;;;;3.45;1.88;;;8.30;99.90;;;;;;2053232;28;20232;-84
2023/08/07 02:31:54;;;;;;;4.38;2.08;;;8.20;99.90;;;;;;2042117;28;20237;-84
2023/08/07 02:32:55;;;;;;;3.50;1.67;;;8.30;99.90;;;;;;2041296;28;20244;-84
2023/08/07 02:33:55;;;;;;;2.37;1.73;;;8.30;99.90;;;;;;2032998;29;20239;-84
2023/08/07 02:34:56;;;;;;;2.43;1.90;;;8.30;99.90;;;;;;2048774;28;20231;-84
2023/08/07 02:35:57;;;;;;;6.00;2.23;;;8.30;99.90;;;;;;2047054;28;20232;-84
2023/08/07 02:36:58;;;;;;;2.77;1.80;;;8.20;99.90;;;;;;2041901;28;20238;-83
2023/08/07 02:37:59;;;;;;;2.80;1.70;;;8.30;99.90;;;;;;2042055;28;20283;-84
2023/08/07 02:39:00;;;;;;;4.43;1.77;;;8.30;99.90;;;;;;2042203;29;20966;-83
2023/08/07 02:40:01;;;;;;;3.30;1.80;;;8.30;99.90;;;;;;2050010;28;20242;-83
2023/08/07 02:41:01;;;;;;;3.40;1.63;;;8.30;99.90;;;;;;2041555;29;20187;-84
2023/08/07 02:42:03;;;;;;;3.13;2.10;;;8.30;99.90;;;;;;2034430;29;20217;-83
2023/08/07 02:43:03;;;;;;;2.17;1.65;;;8.40;99.90;;;;;;2049305;28;20183;-83
2023/08/07 02:44:04;;;;;;;2.43;1.87;;;8.30;99.90;;;;;;2056150;28;20707;-83
2023/08/07 02:45:05;;;;;;;2.40;1.83;;;8.30;99.90;;;;;;2056622;28;20205;-83
2023/08/07 02:46:06;;;;;;;3.65;1.70;;;8.40;99.90;;;;;;2047998;28;20664;-83
2023/08/07 02:47:07;;;;;;;2.97;1.90;;;8.40;99.90;;;;;;2052328;28;20184;-83
2023/08/07 02:48:07;;;;;;;5.50;2.20;;;8.40;99.90;;;;;;2059514;28;20222;-84
2023/08/07 02:49:08;;;;;;;2.43;1.83;;;8.40;99.90;;;;;;2039937;29;20183;-84
2023/08/07 02:50:09;;;;;;;4.80;1.97;;;8.40;99.90;;;;;;2048789;28;20186;-84
2023/08/07 02:51:10;;;;;;;3.23;1.60;;;8.40;99.90;;;;;;2048225;28;20221;-84
2023/08/07 02:52:11;;;;;;;3.70;2.15;;;8.40;99.90;;;;;;2040820;28;20191;-84
2023/08/07 02:53:11;;;;;;;2.77;1.67;;;8.40;99.90;;;;;;2047872;28;20191;-84
2023/08/07 02:54:12;;;;;;;2.40;1.90;;;8.40;99.90;;;;;;2048481;28;20290;-83
2023/08/07 02:55:13;;;;;;;4.43;2.10;;;8.40;99.90;;;;;;2056983;28;20254;-83
2023/08/07 02:56:13;;;;;;;2.70;1.70;;;8.40;99.90;;;;;;2042346;29;20718;-84
2023/08/07 02:57:14;;;;;;;2.93;2.00;;;8.40;99.90;;;;;;2048953;28;20377;-83
2023/08/07 02:58:15;;;;;;;2.60;1.67;;;8.40;99.90;;;;;;2047698;28;20323;-84
2023/08/07 02:59:16;;;;;;;4.10;2.07;;;8.30;99.90;;;;;;2048127;28;20277;-82
2023/08/07 03:00:16;;;;;;;3.90;1.65;;;8.40;99.90;;;;;;2048030;28;20205;-83
2023/08/07 03:01:17;;;;;;;3.63;1.53;;;8.40;99.90;;;;;;2049837;28;20205;-82
2023/08/07 03:02:18;;;;;;;2.80;1.77;;;8.40;99.90;;;;;;2056886;28;20244;-83
2023/08/07 03:03:19;;;;;;;5.73;2.40;;;8.40;99.90;;;;;;2056875;28;20182;-83
2023/08/07 03:04:19;;;;;;;3.93;1.80;;;8.50;99.90;;;;;;2065099;28;20666;-83
2023/08/07 03:05:20;;;;;;;2.50;1.80;;;8.50;99.90;;;;;;2056975;28;20197;-83
2023/08/07 03:06:21;;;;;;;5.77;2.10;;;8.40;99.90;;;;;;2065316;28;20248;-83
2023/08/07 03:07:23;;;;;;;2.37;1.77;;;8.40;99.90;;;;;;2050071;28;20289;-84
2023/08/07 03:08:24;;;;;;;2.83;1.73;;;8.50;99.90;;;;;;2049482;28;20235;-83
2023/08/07 03:09:25;;;;;;;2.57;1.83;;;8.50;99.90;;;;;;2048193;28;20624;-83
2023/08/07 03:10:26;;;;;;;3.42;1.70;;;8.50;99.90;;;;;;2057389;28;20234;-84
2023/08/07 03:11:27;;;;;;;2.87;1.80;;;8.50;99.90;;;;;;2049433;28;20237;-84
2023/08/07 03:12:27;;;;;;;3.27;2.00;;;8.50;99.90;;;;;;2056941;28;20225;-83
2023/08/07 03:13:28;;;;;;;4.57;2.07;;;8.50;99.90;;;;;;2049300;28;20230;-83
2023/08/07 03:14:29;;;;;;;2.73;1.87;;;8.50;99.90;;;;;;2057009;28;20305;-85
2023/08/07 03:15:30;;;;;;;4.72;2.15;;;8.50;99.90;;;;;;2065443;28;20727;-84
2023/08/07 03:16:32;;;;;;;2.67;1.90;;;8.60;99.90;;;;;;2056310;28;20318;-84
2023/08/07 03:17:33;;;;;;;2.67;2.05;;;8.70;99.90;;;;;;2046981;28;20331;-85
2023/08/07 03:18:34;;;;;;;2.57;2.27;;;8.60;99.90;;;;;;2042509;28;20224;-83
2023/08/07 03:19:35;;;;;;;3.07;2.20;;;8.70;99.90;;;;;;2041587;28;20474;-83
2023/08/07 03:20:38;;;;;;;6.80;2.27;;;8.70;99.90;;;;;;2040790;28;20719;-83
2023/08/07 03:21:39;;;;;;;4.70;1.92;;;8.70;99.90;;;;;;2050322;28;20224;-84
2023/08/07 03:22:40;;;;;;;4.27;1.90;;;8.70;99.90;;;;;;2043818;29;20239;-84
2023/08/07 03:23:40;;;;;;;2.20;1.50;;;8.80;99.90;;;;;;2046601;28;20357;-85
2023/08/07 03:24:46;;;;;;;4.80;1.87;;;8.80;99.90;;;;;;2042449;29;20729;-84
2023/08/07 03:25:47;;;;;;;2.70;1.55;;;8.80;99.90;;;;;;2058772;28;20796;-84
2023/08/07 03:26:49;;;;;;;5.57;1.80;;;8.90;99.90;;;;;;2057198;28;20218;-84
2023/08/07 03:27:49;;;;;;;4.03;1.90;;;8.90;99.90;;;;;;2064838;28;20654;-84
2023/08/07 03:28:50;;;;;;;4.23;1.90;;;8.90;99.90;;;;;;2061819;28;20265;-84
2023/08/07 03:29:51;;;;;;;4.30;2.33;;;8.90;99.90;;;;;;2053348;28;20961;-85
2023/08/07 03:30:52;;;;;;;2.53;1.70;;;8.80;99.90;;;;;;2047610;28;20246;-84
2023/08/07 03:31:52;;;;;;;2.47;1.97;;;8.80;99.90;;;;;;2047721;28;20227;-83
2023/08/07 03:32:53;;;;;;;3.00;1.83;;;8.80;99.90;;;;;;2048924;28;20229;-84
2023/08/07 03:33:54;;;;;;;2.73;1.70;;;8.80;99.90;;;;;;2048973;28;20218;-84
2023/08/07 03:34:54;;;;;;;2.30;1.80;;;8.80;99.90;;;;;;2044204;29;20254;-85
2023/08/07 03:35:55;;;;;;;2.30;1.90;;;8.90;99.90;;;;;;2051356;28;20245;-84
2023/08/07 03:36:56;;;;;;;2.43;1.97;;;8.80;99.90;;;;;;2048637;28;20286;-85
2023/08/07 03:37:56;;;;;;;3.67;2.00;;;8.80;99.90;;;;;;2040649;29;20220;-83
2023/08/07 03:38:57;;;;;;;2.53;1.90;;;8.90;99.90;;;;;;2039890;29;20231;-84
2023/08/07 03:39:58;;;;;;;2.93;1.93;;;8.80;99.90;;;;;;2048747;28;20270;-84
2023/08/07 03:40:58;;;;;;;3.10;1.70;;;8.90;99.90;;;;;;2057497;28;20254;-84
2023/08/07 03:41:59;;;;;;;5.97;1.90;;;8.90;99.90;;;;;;2056436;28;20223;-85
2023/08/07 03:43:00;;;;;;;4.70;2.00;;;8.90;99.90;;;;;;2048201;28;20286;-84
2023/08/07 03:44:00;;;;;;;2.97;1.97;;;8.90;99.90;;;;;;2045955;28;20230;-84
2023/08/07 03:45:01;;;;;;;4.47;1.70;;;8.90;99.90;;;;;;2055221;28;20365;-84
2023/08/07 03:46:02;;;;;;;2.90;2.07;;;8.90;99.90;;;;;;2049421;28;20169;-85
2023/08/07 03:47:03;;;;;;;3.27;2.17;;;9.00;99.90;;;;;;2044353;28;20180;-84
2023/08/07 03:48:03;;;;;;;2.65;1.70;;;8.90;99.90;;;;;;2050888;28;20219;-85
2023/08/07 03:49:04;;;;;;;2.00;1.60;;;8.90;99.90;;;;;;2058471;28;20394;-84
2023/08/07 03:50:06;;;;;;;7.43;1.70;;;9.00;99.90;;;;;;2058392;28;20214;-85
2023/08/07 03:51:10;;;;;;;2.90;1.90;;;9.00;99.90;;;;;;2049849;28;20197;-85
2023/08/07 03:52:11;;;;;;;3.40;2.00;;;9.00;99.90;;;;;;2050503;28;20184;-84
2023/08/07 03:53:12;;;;;;;5.53;2.17;;;9.10;99.90;;;;;;2049135;28;20188;-84
2023/08/07 03:54:12;;;;;;;3.43;2.43;;;9.10;99.90;;;;;;2048012;28;20203;-84
2023/08/07 03:55:13;;;;;;;2.60;1.57;;;9.10;99.90;;;;;;2048985;29;20563;-85
2023/08/07 03:56:14;;;;;;;2.33;1.70;;;9.10;99.90;;;;;;2057307;28;20185;-86
2023/08/07 03:57:14;;;;;;;4.90;2.10;;;9.10;99.90;;;;;;2050760;28;20187;-85
2023/08/07 03:58:15;;;;;;;1.90;1.70;;;9.00;99.90;;;;;;2048355;28;20206;-85
2023/08/07 03:59:15;;;;;;;3.67;2.30;;;9.00;99.90;;;;;;2063574;28;20189;-85
2023/08/07 04:00:16;;;;;;;3.97;1.90;;;9.10;99.90;;;;;;2057013;28;20210;-85
2023/08/07 04:01:17;;;;;;;3.30;1.83;;;9.10;99.90;;;;;;2048824;28;20195;-84
2023/08/07 04:02:18;;;;;;;3.40;1.90;;;9.10;99.90;;;;;;2040857;28;20190;-84
2023/08/07 04:03:20;;;;;;;2.83;1.90;;;9.10;99.90;;;;;;2044004;28;20203;-84
2023/08/07 04:04:20;;;;;;;2.65;1.88;;;9.20;99.90;;;;;;2056978;28;20242;-84
2023/08/07 04:05:21;;;;;;;3.13;1.87;;;9.20;99.90;;;;;;2048476;28;20720;-84
2023/08/07 04:06:22;;;;;;;3.23;2.10;;;9.20;99.90;;;;;;2040800;29;20228;-84
2023/08/07 04:07:22;;;;;;;2.40;2.07;;;9.30;99.90;;;;;;2041050;29;20238;-84
2023/08/07 04:08:24;;;;;;;4.00;1.83;;;9.20;99.90;;;;;;2048487;28;20226;-84
2023/08/07 04:09:25;;;;;;;3.55;1.98;;;9.30;99.90;;;;;;2040780;28;20228;-85
2023/08/07 04:10:26;;;;;;;4.22;1.60;;;9.30;99.90;;;;;;2040220;28;20242;-84
2023/08/07 04:11:27;;;;;;;2.83;2.13;;;9.30;99.90;;;;;;2047655;28;20758;-84
2023/08/07 04:12:28;;;;;;;2.95;1.90;;;9.30;99.90;;;;;;2048712;28;20715;-84
2023/08/07 04:13:29;;;;;;;4.50;2.00;;;9.40;99.90;;;;;;2049340;28;20234;-83
2023/08/07 04:14:31;;;;;;;2.80;1.80;;;9.40;99.90;;;;;;2050086;28;20281;-85
2023/08/07 04:15:32;;;;;;;2.75;1.77;;;9.30;99.90;;;;;;2049015;28;20239;-82
2023/08/07 04:16:32;;;;;;;4.70;2.03;;;9.40;99.90;;;;;;2042191;28;20255;-84
2023/08/07 04:17:33;;;;;;;3.47;2.07;;;9.40;99.90;;;;;;2056475;28;20234;-83
2023/08/07 04:18:34;;;;;;;3.53;1.70;;;9.30;99.90;;;;;;2040227;29;20697;-84
2023/08/07 04:19:34;;;;;;;2.13;1.70;;;9.30;99.90;;;;;;2041628;28;20351;-84
2023/08/07 04:20:35;;;;;;;2.83;2.13;;;9.30;99.90;;;;;;2048145;28;20712;-83
2023/08/07 04:21:36;;;;;;;3.37;2.07;;;9.40;99.90;;;;;;2048440;28;20239;-84
2023/08/07 04:22:36;;;;;;;3.63;2.10;;;9.40;99.90;;;;;;2048234;28;20231;-84
2023/08/07 04:23:40;;;;;;;5.10;1.90;;;9.50;99.90;;;;;;2049635;28;20219;-83
2023/08/07 04:24:41;;;;;;;3.60;2.05;;;9.50;99.90;;;;;;2057187;28;20244;-83
2023/08/07 04:25:41;;;;;;;2.80;2.00;;;9.50;99.90;;;;;;2042780;28;20228;-83
2023/08/07 04:26:42;;;;;;;5.07;2.07;;;9.50;99.90;;;;;;2056484;28;20237;-83
2023/08/07 04:27:43;;;;;;;2.50;1.70;;;9.40;99.90;;;;;;2058598;28;20242;-82
2023/08/07 04:28:43;;;;;;;3.27;2.37;;;9.40;99.90;;;;;;2065758;28;20269;-85
2023/08/07 04:29:44;;;;;;;3.47;1.90;;;9.40;99.90;;;;;;2059283;28;20258;-85
2023/08/07 04:30:50;;;;;;;3.47;1.90;;;9.40;99.90;;;;;;2038596;29;20247;-82
2023/08/07 04:31:51;;;;;;;2.20;1.60;;;9.50;99.90;;;;;;2042115;29;20290;-85
2023/08/07 04:32:51;;;;;;;3.03;2.00;;;9.40;99.90;;;;;;2048564;28;20237;-83
2023/08/07 04:33:52;;;;;;;2.30;1.90;;;9.40;99.90;;;;;;2056653;28;20222;-83
2023/08/07 04:34:53;;;;;;;5.80;1.73;;;9.30;99.90;;;;;;2052302;28;20223;-84
2023/08/07 04:35:53;;;;;;;3.00;2.00;;;9.20;99.90;;;;;;2056291;28;20308;-83
2023/08/07 04:36:56;;;;;;;2.80;1.90;;;9.40;99.90;;;;;;2055825;28;20287;-83
2023/08/07 04:37:57;;;;;;;2.08;1.83;;;9.50;99.90;;;;;;2055994;28;20227;-83
2023/08/07 04:38:57;;;;;;;4.07;2.17;;;9.40;99.90;;;;;;2036622;28;20776;-82
2023/08/07 04:40:00;;;;;;;4.77;2.23;;;9.40;99.90;;;;;;2040233;29;20633;-84
2023/08/07 04:41:01;;;;;;;3.28;1.90;;;9.40;99.90;;;;;;2047270;28;20247;-83
2023/08/07 04:42:01;;;;;;;2.33;1.80;;;9.40;99.90;;;;;;2048070;28;20231;-84
2023/08/07 04:43:02;;;;;;;2.23;1.67;;;9.40;99.90;;;;;;2047397;28;20179;-83
2023/08/07 04:44:03;;;;;;;3.50;1.93;;;9.50;99.90;;;;;;2054745;28;20214;-84
2023/08/07 04:45:04;;;;;;;2.13;1.70;;;9.60;99.90;;;;;;2048166;28;20191;-83
2023/08/07 04:46:05;;;;;;;3.38;2.25;;;9.80;99.90;;;;;;2040473;28;20478;-84
2023/08/07 04:47:06;;;;;;;3.73;1.70;;;9.80;99.90;;;;;;2056342;28;20237;-83
2023/08/07 04:48:08;;;;;;;1.73;1.50;;;9.70;99.90;;;;;;2056144;28;20216;-84
2023/08/07 04:49:09;;;;;;;2.55;1.80;;;9.50;99.90;;;;;;2063616;28;20272;-83
2023/08/07 04:50:09;;;;;;;3.07;1.60;;;9.50;99.90;;;;;;2049547;28;20191;-84
2023/08/07 04:51:10;;;;;;;2.37;1.80;;;9.50;99.90;;;;;;2047728;28;20211;-83
2023/08/07 04:52:11;;;;;;;3.00;1.90;;;9.30;99.90;;;;;;2048120;28;20190;-83
2023/08/07 04:53:11;;;;;;;2.53;1.70;;;9.20;99.90;;;;;;2042973;28;20232;-83
2023/08/07 04:54:12;;;;;;;3.90;1.87;;;9.20;99.90;;;;;;2054350;28;20765;-83
2023/08/07 04:55:13;;;;;;;2.77;1.70;;;9.10;99.90;;;;;;2048289;29;20189;-84
2023/08/07 04:56:13;;;;;;;5.17;1.57;;;9.10;99.90;;;;;;2047818;28;20278;-83
2023/08/07 04:57:14;;;;;;;2.87;1.77;;;9.10;99.90;;;;;;2056389;28;20190;-83
2023/08/07 04:58:15;;;;;;;2.93;1.70;;;9.10;99.90;;;;;;2048262;28;20192;-84
2023/08/07 04:59:15;;;;;;;3.00;1.80;;;9.20;99.90;;;;;;2048014;28;20581;-85
2023/08/07 05:00:17;;;;;;;2.20;1.87;;;9.20;99.90;;;;;;2049151;28;20705;-84
2023/08/07 05:01:18;;;;;;;3.05;2.05;;;9.20;99.90;;;;;;2047974;28;20722;-84
2023/08/07 05:02:19;;;;;;;3.88;1.52;;;9.10;99.90;;;;;;2048776;28;20586;-84
2023/08/07 05:03:20;;;;;;;3.55;1.60;;;9.10;99.90;;;;;;2047791;28;20744;-84
2023/08/07 05:04:21;;;;;;;2.10;1.57;;;9.10;99.90;;;;;;2039955;29;20248;-84
2023/08/07 05:05:23;;;;;;;2.30;1.57;;;9.10;99.90;;;;;;2048611;28;20353;-84
2023/08/07 05:06:24;;;;;;;3.25;1.88;;;9.10;99.90;;;;;;2048488;28;20296;-84
2023/08/07 05:07:24;;;;;;;2.20;1.67;;;9.10;99.90;;;;;;2063885;28;20233;-83
2023/08/07 05:08:25;;;;;;;2.50;1.90;;;9.10;99.90;;;;;;2054673;28;20239;-83
2023/08/07 05:09:26;;;;;;;2.83;1.67;;;9.10;99.90;;;;;;2053865;28;20235;-83
2023/08/07 05:10:27;;;;;;;2.17;1.83;;;9.10;99.90;;;;;;2061542;28;20257;-85
2023/08/07 05:11:27;;;;;;;2.27;1.60;;;9.10;99.90;;;;;;2055510;28;20261;-84
2023/08/07 05:12:29;;;;;;;2.87;1.80;;;9.10;99.90;;;;;;2047616;28;20238;-84
2023/08/07 05:13:29;;;;;;;1.80;1.50;;;9.10;99.90;;;;;;2040150;28;20239;-84
2023/08/07 05:14:30;;;;;;;1.80;1.70;;;9.20;99.90;;;;;;2055088;28;20240;-84
2023/08/07 05:15:31;;;;;;;2.00;1.70;;;9.30;99.90;;;;;;2058010;28;20234;-84
2023/08/07 05:16:31;;;;;;;2.17;1.50;;;9.20;99.90;;;;;;2056266;28;20230;-84
2023/08/07 05:17:32;;;;;;;2.73;1.63;;;9.30;99.90;;;;;;2048559;28;20227;-85
2023/08/07 05:18:33;;;;;;;1.80;1.60;;;9.40;99.90;;;;;;2056730;28;20266;-84
2023/08/07 05:19:34;;;;;;;2.80;1.70;;;9.40;99.90;;;;;;2048373;28;20230;-85
2023/08/07 05:20:34;;;;;;;2.83;1.73;;;9.50;99.90;;;;;;2048354;28;20246;-83
2023/08/07 05:21:35;;;;;;;2.07;1.50;;;9.40;99.90;;;;;;2056473;28;20264;-85
2023/08/07 05:22:37;;;;;;;2.47;1.77;;;9.40;99.90;;;;;;2056731;28;20245;-84
2023/08/07 05:23:38;;;;;;;2.17;1.98;;;9.50;99.90;;;;;;2040391;28;20263;-84
2023/08/07 05:24:38;;;;;;;2.07;1.73;;;9.40;99.90;;;;;;2040653;28;20224;-84
2023/08/07 05:25:39;;;;;;;3.03;1.90;;;9.50;99.90;;;;;;2047908;28;20238;-83